sensor_id;sensor_type;location;lat;lon;timestamp;temperature;humidity
42743;DHT22;28397;44.552;-0.848;2023-07-20T00:02:23;20.80;99.90
42743;DHT22;28397;44.552;-0.848;2023-07-20T00:04:49;20.70;99.90
42743;DHT22;28397;44.552;-0.848;2023-07-20T00:07:15;20.50;99.90
42743;DHT22;28397;44.552;-0.848;2023-07-20T00:09:40;20.70;99.90
42743;DHT22;28397;44.552;-0.848;2023-07-20T00:12:06;20.60;99.90
42743;DHT22;28397;44.552;-0.848;2023-07-20T00:14:32;20.50;99.90
42743;DHT22;28397;44.552;-0.848;2023-07-20T00:16:58;20.30;99.90
42743;DHT22;28397;44.552;-0.848;2023-07-20T00:19:27;20.20;99.90
42743;DHT22;28397;44.552;-0.848;2023-07-20T00:21:54;20.00;99.90
42743;DHT22;28397;44.552;-0.848;2023-07-20T00:24:20;19.90;99.90
42743;DHT22;28397;44.552;-0.848;2023-07-20T00:26:46;19.80;99.90
42743;DHT22;28397;44.552;-0.848;2023-07-20T00:29:12;19.80;99.90
42743;DHT22;28397;44.552;-0.848;2023-07-20T00:31:37;19.70;99.90
42743;DHT22;28397;44.552;-0.848;2023-07-20T00:34:04;19.60;99.90
42743;DHT22;28397;44.552;-0.848;2023-07-20T00:36:30;19.60;99.90
42743;DHT22;28397;44.552;-0.848;2023-07-20T00:38:55;19.60;99.90
42743;DHT22;28397;44.552;-0.848;2023-07-20T00:41:22;19.60;99.90
42743;DHT22;28397;44.552;-0.848;2023-07-20T00:43:47;19.50;99.90
42743;DHT22;28397;44.552;-0.848;2023-07-20T00:46:14;19.50;99.90
42743;DHT22;28397;44.552;-0.848;2023-07-20T00:48:40;19.40;99.90
42743;DHT22;28397;44.552;-0.848;2023-07-20T00:51:07;19.40;99.90
42743;DHT22;28397;44.552;-0.848;2023-07-20T00:53:32;19.40;99.90
42743;DHT22;28397;44.552;-0.848;2023-07-20T00:55:58;19.40;99.90
42743;DHT22;28397;44.552;-0.848;2023-07-20T00:58:24;19.70;99.90
42743;DHT22;28397;44.552;-0.848;2023-07-20T01:00:51;20.00;99.90
42743;DHT22;28397;44.552;-0.848;2023-07-20T01:03:17;20.00;99.90
42743;DHT22;28397;44.552;-0.848;2023-07-20T01:09:17;20.10;99.90
42743;DHT22;28397;44.552;-0.848;2023-07-20T01:14:27;20.10;99.90
42743;DHT22;28397;44.552;-0.848;2023-07-20T01:16:53;20.00;99.90
42743;DHT22;28397;44.552;-0.848;2023-07-20T01:19:19;20.00;99.90
42743;DHT22;28397;44.552;-0.848;2023-07-20T01:22:01;20.00;99.90
42743;DHT22;28397;44.552;-0.848;2023-07-20T01:32:54;19.80;99.90
42743;DHT22;28397;44.552;-0.848;2023-07-20T01:35:23;19.90;99.90
42743;DHT22;28397;44.552;-0.848;2023-07-20T01:37:52;19.70;99.90
42743;DHT22;28397;44.552;-0.848;2023-07-20T01:40:20;19.50;99.90
42743;DHT22;28397;44.552;-0.848;2023-07-20T01:42:47;19.30;99.90
42743;DHT22;28397;44.552;-0.848;2023-07-20T01:45:13;19.10;99.90
42743;DHT22;28397;44.552;-0.848;2023-07-20T01:47:39;18.90;99.90
42743;DHT22;28397;44.552;-0.848;2023-07-20T01:50:06;18.90;99.90
42743;DHT22;28397;44.552;-0.848;2023-07-20T01:52:32;18.80;99.90
42743;DHT22;28397;44.552;-0.848;2023-07-20T01:54:57;18.80;99.90
42743;DHT22;28397;44.552;-0.848;2023-07-20T01:57:23;18.70;99.90
42743;DHT22;28397;44.552;-0.848;2023-07-20T01:59:49;18.70;99.90
42743;DHT22;28397;44.552;-0.848;2023-07-20T02:02:14;18.60;99.90
42743;DHT22;28397;44.552;-0.848;2023-07-20T02:04:40;18.60;99.90
42743;DHT22;28397;44.552;-0.848;2023-07-20T02:07:06;18.60;99.90
42743;DHT22;28397;44.552;-0.848;2023-07-20T02:09:31;18.50;99.90
42743;DHT22;28397;44.552;-0.848;2023-07-20T02:11:57;18.40;99.90
42743;DHT22;28397;44.552;-0.848;2023-07-20T02:14:23;18.40;99.90
42743;DHT22;28397;44.552;-0.848;2023-07-20T02:16:48;18.30;99.90
42743;DHT22;28397;44.552;-0.848;2023-07-20T02:19:20;18.40;99.90
42743;DHT22;28397;44.552;-0.848;2023-07-20T02:21:46;18.60;99.90
42743;DHT22;28397;44.552;-0.848;2023-07-20T02:24:13;18.70;99.90
42743;DHT22;28397;44.552;-0.848;2023-07-20T02:26:38;18.70;99.90
42743;DHT22;28397;44.552;-0.848;2023-07-20T02:29:04;18.80;99.90
42743;DHT22;28397;44.552;-0.848;2023-07-20T02:31:33;18.80;99.90
42743;DHT22;28397;44.552;-0.848;2023-07-20T02:33:59;18.90;99.90
42743;DHT22;28397;44.552;-0.848;2023-07-20T02:36:25;18.90;99.90
42743;DHT22;28397;44.552;-0.848;2023-07-20T02:38:50;18.90;99.90
42743;DHT22;28397;44.552;-0.848;2023-07-20T02:41:16;18.90;99.90
42743;DHT22;28397;44.552;-0.848;2023-07-20T02:43:42;18.90;99.90
42743;DHT22;28397;44.552;-0.848;2023-07-20T02:46:07;18.80;99.90
42743;DHT22;28397;44.552;-0.848;2023-07-20T02:48:33;19.00;99.90
42743;DHT22;28397;44.552;-0.848;2023-07-20T02:50:59;18.90;99.90
42743;DHT22;28397;44.552;-0.848;2023-07-20T02:53:24;18.90;99.90
42743;DHT22;28397;44.552;-0.848;2023-07-20T02:55:50;18.90;99.90
42743;DHT22;28397;44.552;-0.848;2023-07-20T02:58:15;18.80;99.90
42743;DHT22;28397;44.552;-0.848;2023-07-20T03:00:42;18.60;99.90
42743;DHT22;28397;44.552;-0.848;2023-07-20T03:03:09;18.40;99.90
42743;DHT22;28397;44.552;-0.848;2023-07-20T03:05:35;18.40;99.90
42743;DHT22;28397;44.552;-0.848;2023-07-20T03:08:03;18.40;99.90
42743;DHT22;28397;44.552;-0.848;2023-07-20T03:10:31;18.40;99.90
42743;DHT22;28397;44.552;-0.848;2023-07-20T03:12:57;18.30;99.90
42743;DHT22;28397;44.552;-0.848;2023-07-20T03:15:23;18.30;99.90
42743;DHT22;28397;44.552;-0.848;2023-07-20T03:17:49;18.30;99.90
42743;DHT22;28397;44.552;-0.848;2023-07-20T03:20:14;18.20;99.90
42743;DHT22;28397;44.552;-0.848;2023-07-20T03:22:41;18.20;99.90
42743;DHT22;28397;44.552;-0.848;2023-07-20T03:25:07;18.20;99.90
42743;DHT22;28397;44.552;-0.848;2023-07-20T03:27:33;18.20;99.90
42743;DHT22;28397;44.552;-0.848;2023-07-20T03:29:59;18.10;99.90
42743;DHT22;28397;44.552;-0.848;2023-07-20T03:32:24;18.10;99.90
42743;DHT22;28397;44.552;-0.848;2023-07-20T03:34:50;18.10;99.90
42743;DHT22;28397;44.552;-0.848;2023-07-20T03:37:16;18.10;99.90
42743;DHT22;28397;44.552;-0.848;2023-07-20T03:39:41;18.10;99.90
42743;DHT22;28397;44.552;-0.848;2023-07-20T03:42:07;18.10;99.90
42743;DHT22;28397;44.552;-0.848;2023-07-20T03:44:33;18.20;99.90
42743;DHT22;28397;44.552;-0.848;2023-07-20T03:46:59;18.30;99.90
42743;DHT22;28397;44.552;-0.848;2023-07-20T03:49:24;18.40;99.90
42743;DHT22;28397;44.552;-0.848;2023-07-20T03:51:50;18.40;99.90
42743;DHT22;28397;44.552;-0.848;2023-07-20T03:54:16;18.50;99.90
42743;DHT22;28397;44.552;-0.848;2023-07-20T03:56:41;18.50;99.90
42743;DHT22;28397;44.552;-0.848;2023-07-20T03:59:07;18.50;99.90
42743;DHT22;28397;44.552;-0.848;2023-07-20T04:01:33;18.40;99.90
42743;DHT22;28397;44.552;-0.848;2023-07-20T04:04:05;18.50;99.90
42743;DHT22;28397;44.552;-0.848;2023-07-20T04:06:31;18.50;99.90
42743;DHT22;28397;44.552;-0.848;2023-07-20T04:08:57;18.30;99.90
42743;DHT22;28397;44.552;-0.848;2023-07-20T04:11:22;18.40;99.90
42743;DHT22;28397;44.552;-0.848;2023-07-20T04:13:48;18.40;99.90
42743;DHT22;28397;44.552;-0.848;2023-07-20T04:16:14;18.30;99.90
42743;DHT22;28397;44.552;-0.848;2023-07-20T04:18:39;18.20;99.90
42743;DHT22;28397;44.552;-0.848;2023-07-20T04:21:08;18.00;99.90
42743;DHT22;28397;44.552;-0.848;2023-07-20T04:23:34;17.90;99.90
42743;DHT22;28397;44.552;-0.848;2023-07-20T04:26:01;17.80;99.90
42743;DHT22;28397;44.552;-0.848;2023-07-20T04:28:27;17.70;99.90
42743;DHT22;28397;44.552;-0.848;2023-07-20T04:30:53;17.60;99.90
42743;DHT22;28397;44.552;-0.848;2023-07-20T04:33:19;17.50;99.90
42743;DHT22;28397;44.552;-0.848;2023-07-20T04:35:52;17.50;99.90
42743;DHT22;28397;44.552;-0.848;2023-07-20T04:38:20;17.50;99.90
42743;DHT22;28397;44.552;-0.848;2023-07-20T04:40:47;17.40;99.90
42743;DHT22;28397;44.552;-0.848;2023-07-20T04:43:16;17.40;99.90
42743;DHT22;28397;44.552;-0.848;2023-07-20T04:45:42;17.40;99.90
42743;DHT22;28397;44.552;-0.848;2023-07-20T04:48:15;17.30;99.90
42743;DHT22;28397;44.552;-0.848;2023-07-20T04:50:41;17.30;99.90
42743;DHT22;28397;44.552;-0.848;2023-07-20T04:53:09;17.20;99.90
42743;DHT22;28397;44.552;-0.848;2023-07-20T04:55:36;17.30;99.90
42743;DHT22;28397;44.552;-0.848;2023-07-20T04:58:03;17.30;99.90
42743;DHT22;28397;44.552;-0.848;2023-07-20T05:00:37;17.30;99.90
42743;DHT22;28397;44.552;-0.848;2023-07-20T05:03:03;17.40;99.90
42743;DHT22;28397;44.552;-0.848;2023-07-20T05:05:31;17.60;99.90
42743;DHT22;28397;44.552;-0.848;2023-07-20T05:07:57;17.70;99.90
42743;DHT22;28397;44.552;-0.848;2023-07-20T05:10:23;17.90;99.90
42743;DHT22;28397;44.552;-0.848;2023-07-20T05:12:49;17.90;99.90
42743;DHT22;28397;44.552;-0.848;2023-07-20T05:15:14;17.90;99.90
42743;DHT22;28397;44.552;-0.848;2023-07-20T05:17:40;18.00;99.90
42743;DHT22;28397;44.552;-0.848;2023-07-20T05:20:06;18.00;99.90
42743;DHT22;28397;44.552;-0.848;2023-07-20T05:22:35;18.00;99.90
42743;DHT22;28397;44.552;-0.848;2023-07-20T05:25:01;18.00;99.90
42743;DHT22;28397;44.552;-0.848;2023-07-20T05:27:26;18.00;99.90
42743;DHT22;28397;44.552;-0.848;2023-07-20T05:29:52;18.00;99.90
42743;DHT22;28397;44.552;-0.848;2023-07-20T05:32:18;18.10;99.90
42743;DHT22;28397;44.552;-0.848;2023-07-20T05:34:43;18.10;99.90
42743;DHT22;28397;44.552;-0.848;2023-07-20T05:37:09;17.90;99.90
42743;DHT22;28397;44.552;-0.848;2023-07-20T05:39:35;17.80;99.90
42743;DHT22;28397;44.552;-0.848;2023-07-20T05:42:00;17.70;99.90
42743;DHT22;28397;44.552;-0.848;2023-07-20T05:44:26;17.60;99.90
42743;DHT22;28397;44.552;-0.848;2023-07-20T05:46:52;17.60;99.90
42743;DHT22;28397;44.552;-0.848;2023-07-20T05:49:17;17.60;99.90
42743;DHT22;28397;44.552;-0.848;2023-07-20T05:51:43;17.60;99.90
42743;DHT22;28397;44.552;-0.848;2023-07-20T05:54:08;17.60;99.90
42743;DHT22;28397;44.552;-0.848;2023-07-20T05:56:34;17.60;99.90
42743;DHT22;28397;44.552;-0.848;2023-07-20T05:59:00;17.60;99.90
42743;DHT22;28397;44.552;-0.848;2023-07-20T06:01:25;17.60;99.90
42743;DHT22;28397;44.552;-0.848;2023-07-20T06:03:53;17.60;99.90
42743;DHT22;28397;44.552;-0.848;2023-07-20T06:06:19;17.60;99.90
42743;DHT22;28397;44.552;-0.848;2023-07-20T06:08:45;17.70;99.90
42743;DHT22;28397;44.552;-0.848;2023-07-20T06:11:11;17.70;99.90
42743;DHT22;28397;44.552;-0.848;2023-07-20T06:13:36;17.80;99.90
42743;DHT22;28397;44.552;-0.848;2023-07-20T06:16:03;17.80;99.90
42743;DHT22;28397;44.552;-0.848;2023-07-20T06:18:29;17.90;99.90
42743;DHT22;28397;44.552;-0.848;2023-07-20T06:20:55;17.90;99.90
42743;DHT22;28397;44.552;-0.848;2023-07-20T06:23:21;18.20;99.90
42743;DHT22;28397;44.552;-0.848;2023-07-20T06:25:47;18.30;99.90
42743;DHT22;28397;44.552;-0.848;2023-07-20T06:28:13;18.60;99.90
42743;DHT22;28397;44.552;-0.848;2023-07-20T06:30:39;18.70;99.90
42743;DHT22;28397;44.552;-0.848;2023-07-20T06:33:05;18.90;99.90
42743;DHT22;28397;44.552;-0.848;2023-07-20T06:35:32;18.90;99.90
42743;DHT22;28397;44.552;-0.848;2023-07-20T06:37:57;19.00;99.90
42743;DHT22;28397;44.552;-0.848;2023-07-20T06:40:24;19.10;99.90
42743;DHT22;28397;44.552;-0.848;2023-07-20T06:42:50;19.10;99.90
42743;DHT22;28397;44.552;-0.848;2023-07-20T06:45:15;19.10;99.90
42743;DHT22;28397;44.552;-0.848;2023-07-20T06:47:41;19.20;99.90
42743;DHT22;28397;44.552;-0.848;2023-07-20T06:50:08;19.30;99.90
42743;DHT22;28397;44.552;-0.848;2023-07-20T06:52:34;19.30;99.90
42743;DHT22;28397;44.552;-0.848;2023-07-20T06:55:00;19.30;99.90
42743;DHT22;28397;44.552;-0.848;2023-07-20T06:57:26;19.30;99.90
42743;DHT22;28397;44.552;-0.848;2023-07-20T06:59:51;19.20;99.90
42743;DHT22;28397;44.552;-0.848;2023-07-20T07:02:17;19.10;99.90
42743;DHT22;28397;44.552;-0.848;2023-07-20T07:04:43;19.20;99.90
42743;DHT22;28397;44.552;-0.848;2023-07-20T07:07:09;19.20;99.90
42743;DHT22;28397;44.552;-0.848;2023-07-20T07:09:35;19.20;99.90
42743;DHT22;28397;44.552;-0.848;2023-07-20T07:12:01;19.20;99.90
42743;DHT22;28397;44.552;-0.848;2023-07-20T07:14:27;19.30;99.90
42743;DHT22;28397;44.552;-0.848;2023-07-20T07:16:52;19.30;99.90
42743;DHT22;28397;44.552;-0.848;2023-07-20T07:19:18;19.30;99.90
42743;DHT22;28397;44.552;-0.848;2023-07-20T07:21:44;19.40;99.90
42743;DHT22;28397;44.552;-0.848;2023-07-20T07:24:10;19.40;99.90
42743;DHT22;28397;44.552;-0.848;2023-07-20T07:26:37;19.30;99.90
42743;DHT22;28397;44.552;-0.848;2023-07-20T07:29:03;19.30;99.90
42743;DHT22;28397;44.552;-0.848;2023-07-20T07:31:30;19.40;99.90
42743;DHT22;28397;44.552;-0.848;2023-07-20T07:33:56;19.40;99.90
42743;DHT22;28397;44.552;-0.848;2023-07-20T07:36:22;19.40;99.90
42743;DHT22;28397;44.552;-0.848;2023-07-20T07:38:50;19.70;99.90
42743;DHT22;28397;44.552;-0.848;2023-07-20T07:41:16;19.90;99.90
42743;DHT22;28397;44.552;-0.848;2023-07-20T07:43:41;20.10;99.90
42743;DHT22;28397;44.552;-0.848;2023-07-20T07:46:07;20.10;99.90
42743;DHT22;28397;44.552;-0.848;2023-07-20T07:48:33;20.40;99.90
42743;DHT22;28397;44.552;-0.848;2023-07-20T07:50:59;20.60;99.90
42743;DHT22;28397;44.552;-0.848;2023-07-20T07:53:24;20.70;99.90
42743;DHT22;28397;44.552;-0.848;2023-07-20T07:58:17;20.80;99.90
42743;DHT22;28397;44.552;-0.848;2023-07-20T08:00:43;21.00;99.90
42743;DHT22;28397;44.552;-0.848;2023-07-20T08:03:09;20.90;99.90
42743;DHT22;28397;44.552;-0.848;2023-07-20T08:05:35;20.90;99.90
42743;DHT22;28397;44.552;-0.848;2023-07-20T08:08:02;21.00;99.90
42743;DHT22;28397;44.552;-0.848;2023-07-20T08:10:29;20.80;99.90
42743;DHT22;28397;44.552;-0.848;2023-07-20T08:12:55;20.70;99.90
42743;DHT22;28397;44.552;-0.848;2023-07-20T08:15:21;20.70;99.90
42743;DHT22;28397;44.552;-0.848;2023-07-20T08:17:47;20.50;99.90
42743;DHT22;28397;44.552;-0.848;2023-07-20T08:20:14;20.50;99.90
42743;DHT22;28397;44.552;-0.848;2023-07-20T08:22:41;20.50;99.90
42743;DHT22;28397;44.552;-0.848;2023-07-20T08:25:08;20.60;99.90
42743;DHT22;28397;44.552;-0.848;2023-07-20T08:27:34;20.50;99.90
42743;DHT22;28397;44.552;-0.848;2023-07-20T08:30:00;20.50;99.90
42743;DHT22;28397;44.552;-0.848;2023-07-20T08:32:26;20.40;99.90
42743;DHT22;28397;44.552;-0.848;2023-07-20T08:34:52;20.40;99.90
42743;DHT22;28397;44.552;-0.848;2023-07-20T08:37:18;20.40;99.90
42743;DHT22;28397;44.552;-0.848;2023-07-20T08:39:43;20.50;99.90
42743;DHT22;28397;44.552;-0.848;2023-07-20T08:42:09;20.50;99.90
42743;DHT22;28397;44.552;-0.848;2023-07-20T08:44:37;20.50;99.90
42743;DHT22;28397;44.552;-0.848;2023-07-20T08:47:04;20.50;99.90
42743;DHT22;28397;44.552;-0.848;2023-07-20T08:49:31;20.60;99.90
42743;DHT22;28397;44.552;-0.848;2023-07-20T08:51:58;20.60;99.90
42743;DHT22;28397;44.552;-0.848;2023-07-20T08:54:29;20.90;99.90
42743;DHT22;28397;44.552;-0.848;2023-07-20T08:56:57;21.10;99.90
42743;DHT22;28397;44.552;-0.848;2023-07-20T08:59:23;21.30;99.90
42743;DHT22;28397;44.552;-0.848;2023-07-20T09:01:51;21.40;99.90
42743;DHT22;28397;44.552;-0.848;2023-07-20T09:04:17;21.50;99.90
42743;DHT22;28397;44.552;-0.848;2023-07-20T09:06:43;21.60;99.90
42743;DHT22;28397;44.552;-0.848;2023-07-20T09:09:09;21.70;99.90
42743;DHT22;28397;44.552;-0.848;2023-07-20T09:11:36;21.70;99.90
42743;DHT22;28397;44.552;-0.848;2023-07-20T09:14:09;21.90;99.90
42743;DHT22;28397;44.552;-0.848;2023-07-20T09:16:54;22.00;99.90
42743;DHT22;28397;44.552;-0.848;2023-07-20T09:19:20;22.10;99.90
42743;DHT22;28397;44.552;-0.848;2023-07-20T09:21:50;22.00;99.90
42743;DHT22;28397;44.552;-0.848;2023-07-20T09:24:18;22.00;99.90
42743;DHT22;28397;44.552;-0.848;2023-07-20T09:26:45;22.10;99.90
42743;DHT22;28397;44.552;-0.848;2023-07-20T09:29:14;22.00;99.90
42743;DHT22;28397;44.552;-0.848;2023-07-20T09:31:40;21.90;99.90
42743;DHT22;28397;44.552;-0.848;2023-07-20T09:34:07;21.60;99.90
42743;DHT22;28397;44.552;-0.848;2023-07-20T09:36:34;21.60;99.90
42743;DHT22;28397;44.552;-0.848;2023-07-20T09:39:00;21.60;99.90
42743;DHT22;28397;44.552;-0.848;2023-07-20T09:41:26;21.70;99.90
42743;DHT22;28397;44.552;-0.848;2023-07-20T09:43:53;21.70;99.90
42743;DHT22;28397;44.552;-0.848;2023-07-20T09:46:19;21.60;99.90
42743;DHT22;28397;44.552;-0.848;2023-07-20T09:48:54;21.70;99.90
42743;DHT22;28397;44.552;-0.848;2023-07-20T09:51:23;21.60;99.90
42743;DHT22;28397;44.552;-0.848;2023-07-20T09:53:52;21.70;99.90
42743;DHT22;28397;44.552;-0.848;2023-07-20T09:56:21;21.60;99.90
42743;DHT22;28397;44.552;-0.848;2023-07-20T09:58:47;21.80;99.90
42743;DHT22;28397;44.552;-0.848;2023-07-20T10:01:14;21.90;99.90
42743;DHT22;28397;44.552;-0.848;2023-07-20T10:03:43;21.80;99.90
42743;DHT22;28397;44.552;-0.848;2023-07-20T10:06:14;21.80;99.90
42743;DHT22;28397;44.552;-0.848;2023-07-20T10:08:41;21.90;99.90
42743;DHT22;28397;44.552;-0.848;2023-07-20T10:11:08;21.90;99.90
42743;DHT22;28397;44.552;-0.848;2023-07-20T10:13:38;22.00;99.90
42743;DHT22;28397;44.552;-0.848;2023-07-20T10:16:11;22.20;99.90
42743;DHT22;28397;44.552;-0.848;2023-07-20T10:19:17;22.40;99.90
42743;DHT22;28397;44.552;-0.848;2023-07-20T10:21:48;22.50;99.90
42743;DHT22;28397;44.552;-0.848;2023-07-20T10:24:17;22.70;99.90
42743;DHT22;28397;44.552;-0.848;2023-07-20T10:26:44;22.80;99.90
42743;DHT22;28397;44.552;-0.848;2023-07-20T10:29:10;22.90;99.90
42743;DHT22;28397;44.552;-0.848;2023-07-20T10:31:37;23.00;99.90
42743;DHT22;28397;44.552;-0.848;2023-07-20T10:34:03;23.10;99.90
42743;DHT22;28397;44.552;-0.848;2023-07-20T10:36:29;23.10;99.90
42743;DHT22;28397;44.552;-0.848;2023-07-20T10:38:56;23.20;99.90
42743;DHT22;28397;44.552;-0.848;2023-07-20T10:41:34;23.30;99.90
42743;DHT22;28397;44.552;-0.848;2023-07-20T10:44:07;23.40;99.90
42743;DHT22;28397;44.552;-0.848;2023-07-20T10:49:06;23.70;99.90
42743;DHT22;28397;44.552;-0.848;2023-07-20T10:51:48;23.80;99.90
42743;DHT22;28397;44.552;-0.848;2023-07-20T10:56:52;23.80;99.90
42743;DHT22;28397;44.552;-0.848;2023-07-20T10:59:36;24.00;99.90
42743;DHT22;28397;44.552;-0.848;2023-07-20T11:02:07;24.10;99.90
42743;DHT22;28397;44.552;-0.848;2023-07-20T11:07:05;24.00;99.90
42743;DHT22;28397;44.552;-0.848;2023-07-20T11:09:38;24.00;99.90
42743;DHT22;28397;44.552;-0.848;2023-07-20T11:12:11;24.10;99.90
42743;DHT22;28397;44.552;-0.848;2023-07-20T11:14:42;24.40;99.90
42743;DHT22;28397;44.552;-0.848;2023-07-20T11:17:12;24.50;99.90
42743;DHT22;28397;44.552;-0.848;2023-07-20T11:19:39;24.30;99.90
42743;DHT22;28397;44.552;-0.848;2023-07-20T11:22:05;24.30;99.90
42743;DHT22;28397;44.552;-0.848;2023-07-20T11:24:34;24.20;99.90
42743;DHT22;28397;44.552;-0.848;2023-07-20T11:27:00;24.20;99.90
42743;DHT22;28397;44.552;-0.848;2023-07-20T11:29:29;24.10;99.90
42743;DHT22;28397;44.552;-0.848;2023-07-20T11:31:56;24.10;99.90
42743;DHT22;28397;44.552;-0.848;2023-07-20T11:34:22;24.20;99.90
42743;DHT22;28397;44.552;-0.848;2023-07-20T11:36:49;24.10;99.90
42743;DHT22;28397;44.552;-0.848;2023-07-20T11:39:21;24.10;99.90
42743;DHT22;28397;44.552;-0.848;2023-07-20T11:41:47;24.20;99.90
42743;DHT22;28397;44.552;-0.848;2023-07-20T11:44:14;24.20;99.90
42743;DHT22;28397;44.552;-0.848;2023-07-20T11:46:41;24.50;99.90
42743;DHT22;28397;44.552;-0.848;2023-07-20T11:49:11;24.60;99.90
42743;DHT22;28397;44.552;-0.848;2023-07-20T11:51:39;24.80;99.90
42743;DHT22;28397;44.552;-0.848;2023-07-20T11:54:07;24.90;99.90
42743;DHT22;28397;44.552;-0.848;2023-07-20T11:56:33;24.70;99.90
42743;DHT22;28397;44.552;-0.848;2023-07-20T11:58:59;24.80;99.90
42743;DHT22;28397;44.552;-0.848;2023-07-20T12:01:27;24.80;99.90
42743;DHT22;28397;44.552;-0.848;2023-07-20T12:04:02;24.70;99.90
42743;DHT22;28397;44.552;-0.848;2023-07-20T12:06:29;24.70;99.90
42743;DHT22;28397;44.552;-0.848;2023-07-20T12:08:57;24.80;99.90
42743;DHT22;28397;44.552;-0.848;2023-07-20T12:11:36;24.70;99.90
42743;DHT22;28397;44.552;-0.848;2023-07-20T12:14:03;24.80;99.90
42743;DHT22;28397;44.552;-0.848;2023-07-20T12:16:30;24.70;99.90
42743;DHT22;28397;44.552;-0.848;2023-07-20T12:19:08;24.80;99.90
42743;DHT22;28397;44.552;-0.848;2023-07-20T12:21:36;24.90;99.90
42743;DHT22;28397;44.552;-0.848;2023-07-20T12:24:03;25.00;99.90
42743;DHT22;28397;44.552;-0.848;2023-07-20T12:26:32;25.00;99.90
42743;DHT22;28397;44.552;-0.848;2023-07-20T12:28:59;25.20;99.90
42743;DHT22;28397;44.552;-0.848;2023-07-20T12:31:26;25.10;99.90
42743;DHT22;28397;44.552;-0.848;2023-07-20T12:33:53;25.20;99.90
42743;DHT22;28397;44.552;-0.848;2023-07-20T12:36:21;25.30;99.90
42743;DHT22;28397;44.552;-0.848;2023-07-20T12:38:46;25.20;99.90
42743;DHT22;28397;44.552;-0.848;2023-07-20T12:41:13;25.30;99.90
42743;DHT22;28397;44.552;-0.848;2023-07-20T12:43:43;25.40;99.90
42743;DHT22;28397;44.552;-0.848;2023-07-20T12:46:11;25.30;99.90
42743;DHT22;28397;44.552;-0.848;2023-07-20T12:48:37;25.00;99.90
42743;DHT22;28397;44.552;-0.848;2023-07-20T12:51:05;24.80;99.90
42743;DHT22;28397;44.552;-0.848;2023-07-20T12:53:31;24.90;99.90
42743;DHT22;28397;44.552;-0.848;2023-07-20T12:55:58;25.10;99.90
42743;DHT22;28397;44.552;-0.848;2023-07-20T12:58:24;25.10;99.90
42743;DHT22;28397;44.552;-0.848;2023-07-20T13:00:49;25.10;99.90
42743;DHT22;28397;44.552;-0.848;2023-07-20T13:03:15;25.10;99.90
42743;DHT22;28397;44.552;-0.848;2023-07-20T13:05:44;25.00;99.90
42743;DHT22;28397;44.552;-0.848;2023-07-20T13:08:10;24.80;99.90
42743;DHT22;28397;44.552;-0.848;2023-07-20T13:10:36;24.90;99.90
42743;DHT22;28397;44.552;-0.848;2023-07-20T13:13:02;25.10;99.90
42743;DHT22;28397;44.552;-0.848;2023-07-20T13:15:32;25.10;99.90
42743;DHT22;28397;44.552;-0.848;2023-07-20T13:17:58;25.30;99.90
42743;DHT22;28397;44.552;-0.848;2023-07-20T13:20:25;25.20;99.90
42743;DHT22;28397;44.552;-0.848;2023-07-20T13:22:51;25.40;99.90
42743;DHT22;28397;44.552;-0.848;2023-07-20T13:25:17;25.50;99.90
42743;DHT22;28397;44.552;-0.848;2023-07-20T13:27:43;25.60;99.90
42743;DHT22;28397;44.552;-0.848;2023-07-20T13:30:08;25.60;99.90
42743;DHT22;28397;44.552;-0.848;2023-07-20T13:32:39;25.70;99.90
42743;DHT22;28397;44.552;-0.848;2023-07-20T13:35:05;25.70;99.90
42743;DHT22;28397;44.552;-0.848;2023-07-20T13:37:31;25.80;99.90
42743;DHT22;28397;44.552;-0.848;2023-07-20T13:39:56;25.70;99.90
42743;DHT22;28397;44.552;-0.848;2023-07-20T13:42:22;25.90;99.90
42743;DHT22;28397;44.552;-0.848;2023-07-20T13:44:48;25.90;99.90
42743;DHT22;28397;44.552;-0.848;2023-07-20T13:47:14;25.80;99.90
42743;DHT22;28397;44.552;-0.848;2023-07-20T13:49:40;25.90;99.90
42743;DHT22;28397;44.552;-0.848;2023-07-20T13:52:06;26.10;99.90
42743;DHT22;28397;44.552;-0.848;2023-07-20T13:54:32;26.20;99.90
42743;DHT22;28397;44.552;-0.848;2023-07-20T13:56:58;26.30;99.90
42743;DHT22;28397;44.552;-0.848;2023-07-20T13:59:23;26.10;99.90
42743;DHT22;28397;44.552;-0.848;2023-07-20T14:01:49;25.80;99.90
42743;DHT22;28397;44.552;-0.848;2023-07-20T14:04:15;25.80;99.90
42743;DHT22;28397;44.552;-0.848;2023-07-20T14:06:41;25.90;99.90
42743;DHT22;28397;44.552;-0.848;2023-07-20T14:09:06;25.70;99.90
42743;DHT22;28397;44.552;-0.848;2023-07-20T14:11:33;25.40;99.90
42743;DHT22;28397;44.552;-0.848;2023-07-20T14:13:58;25.60;99.90
42743;DHT22;28397;44.552;-0.848;2023-07-20T14:16:25;25.60;99.90
42743;DHT22;28397;44.552;-0.848;2023-07-20T14:18:51;25.50;99.90
42743;DHT22;28397;44.552;-0.848;2023-07-20T14:21:18;25.40;99.90
42743;DHT22;28397;44.552;-0.848;2023-07-20T14:23:49;25.20;99.90
42743;DHT22;28397;44.552;-0.848;2023-07-20T14:26:18;24.80;99.90
42743;DHT22;28397;44.552;-0.848;2023-07-20T14:28:44;24.80;99.90
42743;DHT22;28397;44.552;-0.848;2023-07-20T14:31:10;24.70;99.90
42743;DHT22;28397;44.552;-0.848;2023-07-20T14:33:35;24.60;99.90
42743;DHT22;28397;44.552;-0.848;2023-07-20T14:36:02;24.60;99.90
42743;DHT22;28397;44.552;-0.848;2023-07-20T14:38:28;24.70;99.90
42743;DHT22;28397;44.552;-0.848;2023-07-20T14:40:54;24.80;99.90
42743;DHT22;28397;44.552;-0.848;2023-07-20T14:43:20;24.80;99.90
42743;DHT22;28397;44.552;-0.848;2023-07-20T14:45:46;24.90;99.90
42743;DHT22;28397;44.552;-0.848;2023-07-20T14:48:12;25.00;99.90
42743;DHT22;28397;44.552;-0.848;2023-07-20T14:50:38;24.90;99.90
42743;DHT22;28397;44.552;-0.848;2023-07-20T14:53:03;24.80;99.90
42743;DHT22;28397;44.552;-0.848;2023-07-20T14:55:29;24.80;99.90
42743;DHT22;28397;44.552;-0.848;2023-07-20T14:57:55;25.00;99.90
42743;DHT22;28397;44.552;-0.848;2023-07-20T15:00:21;25.10;99.90
42743;DHT22;28397;44.552;-0.848;2023-07-20T15:02:46;25.30;99.90
42743;DHT22;28397;44.552;-0.848;2023-07-20T15:05:14;25.10;99.90
42743;DHT22;28397;44.552;-0.848;2023-07-20T15:07:45;25.10;99.90
42743;DHT22;28397;44.552;-0.848;2023-07-20T15:10:11;25.10;99.90
42743;DHT22;28397;44.552;-0.848;2023-07-20T15:12:36;25.00;99.90
42743;DHT22;28397;44.552;-0.848;2023-07-20T15:15:04;25.30;99.90
42743;DHT22;28397;44.552;-0.848;2023-07-20T15:17:31;25.30;99.90
42743;DHT22;28397;44.552;-0.848;2023-07-20T15:19:57;25.30;99.90
42743;DHT22;28397;44.552;-0.848;2023-07-20T15:22:23;25.20;99.90
42743;DHT22;28397;44.552;-0.848;2023-07-20T15:24:48;25.10;99.90
42743;DHT22;28397;44.552;-0.848;2023-07-20T15:27:14;25.10;99.90
42743;DHT22;28397;44.552;-0.848;2023-07-20T15:29:40;25.30;99.90
42743;DHT22;28397;44.552;-0.848;2023-07-20T15:32:06;25.40;99.90
42743;DHT22;28397;44.552;-0.848;2023-07-20T15:34:32;25.30;99.90
42743;DHT22;28397;44.552;-0.848;2023-07-20T15:36:57;25.00;99.90
42743;DHT22;28397;44.552;-0.848;2023-07-20T15:39:23;25.00;99.90